createdAt,value
2018-09-23T00:01:33.661Z,101181.78
2018-09-23T00:04:02.509Z,101179.56
2018-09-23T00:06:31.373Z,101187.49
2018-09-23T00:09:00.188Z,101186.86
2018-09-23T00:11:29.132Z,101178.55
2018-09-23T00:13:57.954Z,101174.62
2018-09-23T00:16:26.828Z,101174.91
2018-09-23T00:18:55.648Z,101170.55
2018-09-23T00:21:24.503Z,101170.55
2018-09-23T00:23:53.389Z,101171.05
2018-09-23T00:26:22.271Z,101163.25
2018-09-23T00:28:51.124Z,101157.38
2018-09-23T00:31:19.956Z,101148.00
2018-09-23T00:33:48.832Z,101146.01
2018-09-23T00:36:17.663Z,101134.09
2018-09-23T00:38:46.507Z,101137.30
2018-09-23T00:41:15.337Z,101134.87
2018-09-23T00:43:44.179Z,101151.08
2018-09-23T00:46:13.017Z,101146.64
2018-09-23T00:48:41.903Z,101154.59
2018-09-23T00:51:10.738Z,101152.39
2018-09-23T00:53:39.581Z,101154.11
2018-09-23T00:56:08.480Z,101142.52
2018-09-23T00:58:37.343Z,101141.66
2018-09-23T01:01:06.242Z,101130.42
2018-09-23T01:03:35.096Z,101129.42
2018-09-23T01:06:03.935Z,101120.41
2018-09-23T01:08:32.810Z,101118.65
2018-09-23T01:11:01.636Z,101112.54
2018-09-23T01:13:30.472Z,101104.02
2018-09-23T01:15:59.313Z,101090.23
2018-09-23T01:18:28.146Z,101075.83
2018-09-23T01:20:56.996Z,101071.92
2018-09-23T01:23:25.828Z,101075.09
2018-09-23T01:25:54.680Z,101071.75
2018-09-23T01:28:23.539Z,101063.33
2018-09-23T01:30:52.381Z,101064.29
2018-09-23T01:33:21.201Z,101063.71
2018-09-23T01:35:50.061Z,101059.77
2018-09-23T01:38:18.927Z,101051.20
2018-09-23T01:40:47.779Z,101058.49
2018-09-23T01:43:16.594Z,101057.54
2018-09-23T01:45:45.466Z,101058.14
2018-09-23T01:48:14.335Z,101053.94
2018-09-23T01:50:43.214Z,101054.13
2018-09-23T01:53:12.070Z,101053.63
2018-09-23T01:55:40.931Z,101046.08
2018-09-23T01:58:09.790Z,101050.37
2018-09-23T02:00:38.697Z,101049.92
2018-09-23T02:03:07.528Z,101045.84
2018-09-23T02:05:36.381Z,101029.77
2018-09-23T02:08:05.268Z,101030.48
2018-09-23T02:10:34.147Z,101031.34
2018-09-23T02:13:02.983Z,101024.09
2018-09-23T02:15:31.854Z,101016.66
2018-09-23T02:18:00.707Z,101018.59
2018-09-23T02:20:29.542Z,101014.52
2018-09-23T02:22:58.394Z,101020.81
2018-09-23T02:25:27.250Z,101021.95
2018-09-23T02:27:56.211Z,101014.66
2018-09-23T02:30:25.008Z,101013.70
2018-09-23T02:32:53.860Z,101008.77
2018-09-23T02:35:23.319Z,101007.62
2018-09-23T02:37:53.741Z,100999.75
2018-09-23T02:40:22.696Z,101005.64
2018-09-23T02:42:51.597Z,101018.52
2018-09-23T02:45:20.500Z,101003.71
2018-09-23T02:47:49.348Z,101006.00
2018-09-23T02:50:18.233Z,101011.80
2018-09-23T02:52:47.059Z,101004.64
2018-09-23T02:55:15.989Z,101008.62
2018-09-23T02:57:44.767Z,100993.77
2018-09-23T03:00:13.630Z,100993.27
2018-09-23T03:02:42.524Z,100982.19
2018-09-23T03:05:11.361Z,100988.27
2018-09-23T03:07:40.201Z,100987.70
2018-09-23T03:10:09.062Z,100977.98
2018-09-23T03:12:37.926Z,100980.88
2018-09-23T03:15:06.768Z,100959.84
2018-09-23T03:17:35.622Z,100955.63
2018-09-23T03:20:04.508Z,100937.75
2018-09-23T03:22:33.377Z,100926.84
2018-09-23T03:25:02.200Z,100921.55
2018-09-23T03:27:31.026Z,100923.20
2018-09-23T03:29:59.880Z,100929.09
2018-09-23T03:32:28.724Z,100937.89
2018-09-23T03:34:57.583Z,100926.38
2018-09-23T03:37:26.425Z,100923.95
2018-09-23T03:39:55.286Z,100917.44
2018-09-23T03:42:24.124Z,100901.61
2018-09-23T03:44:52.963Z,100890.27
2018-09-23T03:47:21.809Z,100891.45
2018-09-23T03:49:50.688Z,100882.27
2018-09-23T03:52:19.508Z,100878.73
2018-09-23T03:54:48.363Z,100873.30
2018-09-23T03:57:17.208Z,100867.15
2018-09-23T03:59:46.063Z,100884.45
2018-09-23T04:02:14.947Z,100903.53
2018-09-23T04:04:43.795Z,100915.93
2018-09-23T04:07:12.656Z,100906.70
2018-09-23T04:09:41.535Z,100899.35
2018-09-23T04:12:10.401Z,100908.50
2018-09-23T04:14:39.226Z,100915.58
2018-09-23T04:17:08.070Z,100906.79
2018-09-23T04:19:36.981Z,100899.85
2018-09-23T04:22:05.801Z,100919.31
2018-09-23T04:24:34.630Z,100923.30
2018-09-23T04:27:03.503Z,100901.24
2018-09-23T04:29:32.344Z,100882.51
2018-09-23T04:32:01.198Z,100893.02
2018-09-23T04:34:30.038Z,100897.49
2018-09-23T04:36:58.885Z,100898.74
2018-09-23T04:39:27.741Z,100891.02
2018-09-23T04:41:56.601Z,100872.87
2018-09-23T04:44:25.439Z,100849.78
2018-09-23T04:46:54.266Z,100863.29
2018-09-23T04:49:23.116Z,100866.76
2018-09-23T04:51:51.982Z,100866.77
2018-09-23T04:54:20.854Z,100869.36
2018-09-23T04:56:49.699Z,100881.02
2018-09-23T04:59:18.528Z,100892.17
2018-09-23T05:01:47.369Z,100889.31
2018-09-23T05:04:16.229Z,100896.59
2018-09-23T05:06:45.091Z,100892.88
2018-09-23T05:09:13.942Z,100879.16
2018-09-23T05:11:42.803Z,100870.72
2018-09-23T05:14:11.629Z,100842.98
2018-09-23T05:16:40.484Z,100827.34
2018-09-23T05:19:09.316Z,100821.76
2018-09-23T05:21:38.142Z,100817.19
2018-09-23T05:24:07.000Z,100835.88
2018-09-23T05:26:35.877Z,100837.37
2018-09-23T05:29:04.770Z,100856.31
2018-09-23T05:31:33.604Z,100863.81
2018-09-23T05:34:02.435Z,100851.73
2018-09-23T05:36:31.270Z,100851.50
2018-09-23T05:39:00.130Z,100845.56
2018-09-23T05:41:28.964Z,100836.77
2018-09-23T05:43:57.824Z,100838.88
2018-09-23T05:46:26.634Z,100841.38
2018-09-23T05:48:55.461Z,100832.16
2018-09-23T05:51:24.295Z,100853.10
2018-09-23T05:53:53.137Z,100854.96
2018-09-23T05:56:21.987Z,100858.14
2018-09-23T05:58:50.822Z,100848.63
2018-09-23T06:01:19.639Z,100838.41
2018-09-23T06:03:48.474Z,100846.77
2018-09-23T06:06:17.293Z,100833.34
2018-09-23T06:08:46.216Z,100821.97
2018-09-23T06:11:15.046Z,100826.45
2018-09-23T06:13:43.852Z,100842.23
2018-09-23T06:16:12.703Z,100841.23
2018-09-23T06:18:41.604Z,100842.92
2018-09-23T06:21:10.451Z,100859.03
2018-09-23T06:23:39.716Z,100856.95
2018-09-23T06:26:08.565Z,100852.41
2018-09-23T06:28:37.460Z,100842.75
2018-09-23T06:31:06.481Z,100826.42
2018-09-23T06:33:35.319Z,100834.42
2018-09-23T06:36:04.193Z,100840.66
2018-09-23T06:38:33.112Z,100837.86
2018-09-23T06:41:01.958Z,100835.79
2018-09-23T06:43:30.794Z,100834.58
2018-09-23T06:45:59.620Z,100840.42
2018-09-23T06:48:28.473Z,100847.41
2018-09-23T06:50:57.359Z,100836.08
2018-09-23T06:53:26.147Z,100829.22
2018-09-23T06:55:54.997Z,100813.77
2018-09-23T06:58:24.184Z,100807.16
2018-09-23T07:00:53.045Z,100808.33
2018-09-23T07:03:21.944Z,100809.19
2018-09-23T07:05:50.781Z,100795.23
2018-09-23T07:08:19.656Z,100793.79
2018-09-23T07:10:48.481Z,100783.06
2018-09-23T07:13:17.371Z,100790.21
2018-09-23T07:15:46.259Z,100789.16
2018-09-23T07:18:15.232Z,100779.19
2018-09-23T07:20:43.964Z,100788.70
2018-09-23T07:23:12.820Z,100780.22
2018-09-23T07:25:41.673Z,100781.30
2018-09-23T07:28:10.505Z,100774.19
2018-09-23T07:30:39.384Z,100772.97
2018-09-23T07:33:08.246Z,100784.62
2018-09-23T07:35:37.064Z,100767.95
2018-09-23T07:38:05.910Z,100769.41
2018-09-23T07:40:34.761Z,100774.89
2018-09-23T07:43:03.597Z,100776.05
2018-09-23T07:45:32.496Z,100780.48
2018-09-23T07:48:01.330Z,100783.91
2018-09-23T07:50:30.272Z,100778.67
2018-09-23T07:52:59.155Z,100780.03
2018-09-23T07:55:28.013Z,100777.97
2018-09-23T07:57:56.849Z,100780.53
2018-09-23T08:00:25.708Z,100781.31
2018-09-23T08:02:54.567Z,100785.13
2018-09-23T08:05:23.423Z,100795.16
2018-09-23T08:07:52.270Z,100798.73
2018-09-23T08:10:21.129Z,100779.54
2018-09-23T08:12:50.299Z,100762.36
2018-09-23T08:15:18.781Z,100770.66
2018-09-23T08:17:47.645Z,100762.66
2018-09-23T08:20:16.667Z,100775.97
2018-09-23T08:22:45.359Z,100759.64
2018-09-23T08:25:14.310Z,100757.06
2018-09-23T08:27:43.097Z,100758.92
2018-09-23T08:30:11.965Z,100761.29
2018-09-23T08:32:40.793Z,100769.45
2018-09-23T08:35:09.630Z,100755.70
2018-09-23T08:37:38.468Z,100739.22
2018-09-23T08:40:07.371Z,100741.10
2018-09-23T08:42:36.157Z,100745.18
2018-09-23T08:45:05.016Z,100735.31
2018-09-23T08:47:33.863Z,100725.63
2018-09-23T08:50:02.722Z,100714.05
2018-09-23T08:52:31.580Z,100705.38
2018-09-23T08:55:00.420Z,100706.89
2018-09-23T08:57:29.257Z,100702.96
2018-09-23T08:59:58.111Z,100701.30
2018-09-23T09:02:26.951Z,100702.66
2018-09-23T09:04:55.815Z,100713.08
2018-09-23T09:07:24.637Z,100702.05
2018-09-23T09:09:53.541Z,100691.02
2018-09-23T09:12:22.417Z,100701.60
2018-09-23T09:14:51.287Z,100697.09
2018-09-23T09:17:20.101Z,100699.30
2018-09-23T09:19:48.975Z,100699.62
2018-09-23T09:22:17.882Z,100718.51
2018-09-23T09:24:46.723Z,100732.78
2018-09-23T09:27:15.590Z,100736.05
2018-09-23T09:29:44.435Z,100715.45
2018-09-23T09:32:13.302Z,100722.09
2018-09-23T09:34:42.171Z,100721.23
2018-09-23T09:37:11.012Z,100707.63
2018-09-23T09:39:39.897Z,100705.26
2018-09-23T09:42:08.801Z,100706.27
2018-09-23T09:44:37.644Z,100701.17
2018-09-23T09:47:07.628Z,100712.06
2018-09-23T09:49:36.498Z,100720.73
2018-09-23T09:52:05.640Z,100748.10
2018-09-23T09:54:34.488Z,100751.33
2018-09-23T09:57:03.377Z,100739.73
2018-09-23T09:59:32.255Z,100736.66
2018-09-23T10:02:01.098Z,100739.69
2018-09-23T10:04:29.908Z,100732.02
2018-09-23T10:06:58.784Z,100710.66
2018-09-23T10:09:27.598Z,100683.12
2018-09-23T10:11:56.403Z,100665.72
2018-09-23T10:14:25.230Z,100641.69
2018-09-23T10:16:54.059Z,100650.59
2018-09-23T10:19:22.908Z,100658.06
2018-09-23T10:21:51.818Z,100674.07
2018-09-23T10:24:20.643Z,100655.17
2018-09-23T10:26:49.466Z,100659.27
2018-09-23T10:29:18.318Z,100668.44
2018-09-23T10:31:47.318Z,100669.59
2018-09-23T10:34:16.013Z,100733.99
2018-09-23T10:36:44.859Z,100804.02
2018-09-23T10:39:13.689Z,100834.23
2018-09-23T10:41:42.530Z,100825.42
2018-09-23T10:44:11.369Z,100789.70
2018-09-23T10:46:40.228Z,100736.16
2018-09-23T10:49:09.095Z,100724.41
2018-09-23T10:51:37.932Z,100695.34
2018-09-23T10:54:06.842Z,100670.52
2018-09-23T10:56:35.707Z,100637.88
2018-09-23T10:59:04.598Z,100656.25
2018-09-23T11:01:33.432Z,100715.59
2018-09-23T11:04:02.481Z,100724.42
2018-09-23T11:06:31.186Z,100700.75
2018-09-23T11:09:00.030Z,100717.92
2018-09-23T11:11:28.886Z,100731.98
2018-09-23T11:13:57.738Z,100728.51
2018-09-23T11:16:26.565Z,100709.26
2018-09-23T11:18:55.441Z,100704.63
2018-09-23T11:21:24.443Z,100702.06
2018-09-23T11:23:53.309Z,100706.14
2018-09-23T11:26:22.188Z,100699.59
2018-09-23T11:28:51.023Z,100684.45
2018-09-23T11:31:19.896Z,100671.69
2018-09-23T11:33:48.746Z,100649.74
2018-09-23T11:36:17.599Z,100643.95
2018-09-23T11:38:46.445Z,100639.86
2018-09-23T11:41:15.289Z,100653.78
2018-09-23T11:43:44.115Z,100654.92
2018-09-23T11:46:12.959Z,100664.14
2018-09-23T11:48:41.808Z,100664.64
2018-09-23T11:51:10.616Z,100679.61
2018-09-23T11:53:39.485Z,100686.95
2018-09-23T11:56:08.321Z,100681.60
2018-09-23T11:58:37.173Z,100678.27
2018-09-23T12:01:06.079Z,100681.58
2018-09-23T12:03:34.935Z,100664.91
2018-09-23T12:06:03.934Z,100681.59
2018-09-23T12:08:32.733Z,100694.81
2018-09-23T12:11:01.704Z,100699.89
2018-09-23T12:13:30.423Z,100700.09
2018-09-23T12:15:59.286Z,100685.14
2018-09-23T12:18:28.138Z,100684.78
2018-09-23T12:20:56.963Z,100687.67
2018-09-23T12:23:25.841Z,100685.00
2018-09-23T12:25:54.687Z,100704.19
2018-09-23T12:28:23.725Z,100721.16
2018-09-23T12:30:52.536Z,100715.05
2018-09-23T12:33:21.476Z,100685.80
2018-09-23T12:35:50.224Z,100688.67
2018-09-23T12:38:19.076Z,100695.27
2018-09-23T12:40:47.916Z,100663.69
2018-09-23T12:43:16.769Z,100665.40
2018-09-23T12:45:45.628Z,100672.70
2018-09-23T12:48:14.456Z,100682.02
2018-09-23T12:50:43.303Z,100703.56
2018-09-23T12:53:12.217Z,100682.81
2018-09-23T12:55:40.994Z,100659.30
2018-09-23T12:58:09.836Z,100661.16
2018-09-23T13:00:38.697Z,100661.17
2018-09-23T13:03:07.545Z,100649.59
2018-09-23T13:05:36.470Z,100647.78
2018-09-23T13:08:05.256Z,100674.97
2018-09-23T13:10:34.095Z,100699.88
2018-09-23T13:13:03.025Z,100710.27
2018-09-23T13:15:31.871Z,100718.27
2018-09-23T13:18:00.838Z,100725.92
2018-09-23T13:20:29.554Z,100735.59
2018-09-23T13:22:58.439Z,100747.58
2018-09-23T13:25:27.271Z,100742.28
2018-09-23T13:27:56.119Z,100748.02
2018-09-23T13:30:24.943Z,100759.12
2018-09-23T13:32:53.759Z,100771.34
2018-09-23T13:35:22.638Z,100782.91
2018-09-23T13:37:51.486Z,100803.73
2018-09-23T13:40:20.337Z,100812.01
2018-09-23T13:42:49.189Z,100817.20
2018-09-23T13:45:18.034Z,100825.39
2018-09-23T13:47:46.858Z,100819.77
2018-09-23T13:50:15.710Z,100815.17
2018-09-23T13:52:44.525Z,100807.02
2018-09-23T13:55:13.372Z,100808.67
2018-09-23T13:57:42.218Z,100810.68
2018-09-23T14:00:11.060Z,100828.14
2018-09-23T14:02:39.889Z,100826.71
2018-09-23T14:05:08.780Z,100826.78
2018-09-23T14:07:37.620Z,100836.35
2018-09-23T14:10:06.538Z,100838.36
2018-09-23T14:12:35.345Z,100846.71
2018-09-23T14:15:04.228Z,100856.44
2018-09-23T14:17:33.105Z,100859.75
2018-09-23T14:20:01.949Z,100861.11
2018-09-23T14:22:30.791Z,100867.61
2018-09-23T14:24:59.652Z,100867.72
2018-09-23T14:27:28.499Z,100874.09
2018-09-23T14:29:57.380Z,100879.45
2018-09-23T14:32:26.278Z,100873.95
2018-09-23T14:34:55.144Z,100876.42
2018-09-23T14:37:23.963Z,100888.09
2018-09-23T14:39:52.785Z,100875.40
2018-09-23T14:42:21.634Z,100869.22
2018-09-23T14:44:50.459Z,100879.34
2018-09-23T14:47:19.304Z,100874.05
2018-09-23T14:49:48.113Z,100875.62
2018-09-23T14:52:16.974Z,100874.90
2018-09-23T14:54:46.005Z,100873.83
2018-09-23T14:57:14.657Z,100872.26
2018-09-23T14:59:43.511Z,100882.84
2018-09-23T15:02:12.325Z,100889.95
2018-09-23T15:04:41.278Z,100882.96
2018-09-23T15:07:10.102Z,100895.89
2018-09-23T15:09:38.912Z,100906.12
2018-09-23T15:12:07.849Z,100900.63
2018-09-23T15:14:36.679Z,100905.30
2018-09-23T15:17:05.507Z,100913.92
2018-09-23T15:19:34.360Z,100918.85
2018-09-23T15:22:03.174Z,100933.75
2018-09-23T15:24:32.025Z,100935.98
2018-09-23T15:27:00.858Z,100939.64
2018-09-23T15:29:29.727Z,100956.30
2018-09-23T15:31:58.604Z,100958.33
2018-09-23T15:34:27.384Z,100973.84
2018-09-23T15:36:56.235Z,100975.75
2018-09-23T15:39:25.124Z,100986.77
2018-09-23T15:41:53.975Z,100993.81
2018-09-23T15:44:22.846Z,100997.75
2018-09-23T15:46:51.665Z,100998.33
2018-09-23T15:49:20.566Z,101012.09
2018-09-23T15:51:49.466Z,101017.25
2018-09-23T15:54:18.282Z,101034.70
2018-09-23T15:56:47.139Z,101039.23
2018-09-23T15:59:15.985Z,101040.16
2018-09-23T16:01:44.820Z,101046.19
2018-09-23T16:04:13.685Z,101056.84
2018-09-23T16:06:42.507Z,101057.16
2018-09-23T16:09:11.350Z,101064.72
2018-09-23T16:11:40.221Z,101069.80
2018-09-23T16:14:09.145Z,101076.51
2018-09-23T16:16:38.082Z,101088.55
2018-09-23T16:19:07.003Z,101095.33
2018-09-23T16:21:35.806Z,101098.55
2018-09-23T16:24:04.679Z,101097.11
2018-09-23T16:26:33.637Z,101098.23
2018-09-23T16:29:02.505Z,101111.05
2018-09-23T16:31:31.351Z,101118.60
2018-09-23T16:34:00.261Z,101127.83
2018-09-23T16:36:29.078Z,101127.73
2018-09-23T16:38:57.961Z,101144.82
2018-09-23T16:41:26.967Z,101151.47
2018-09-23T16:43:55.835Z,101164.51
2018-09-23T16:46:24.735Z,101171.99
2018-09-23T16:48:53.578Z,101182.63
2018-09-23T16:51:22.425Z,101185.47
2018-09-23T16:53:51.293Z,101195.97
2018-09-23T16:56:20.099Z,101195.41
2018-09-23T16:58:48.959Z,101203.55
2018-09-23T17:01:17.782Z,101214.05
2018-09-23T17:03:46.775Z,101225.64
2018-09-23T17:06:15.573Z,101232.22
2018-09-23T17:08:44.376Z,101234.73
2018-09-23T17:11:13.307Z,101241.16
2018-09-23T17:13:42.138Z,101244.94
2018-09-23T17:16:11.022Z,101251.52
2018-09-23T17:18:39.862Z,101259.56
2018-09-23T17:21:08.691Z,101261.10
2018-09-23T17:23:37.542Z,101275.63
2018-09-23T17:26:06.368Z,101284.22
2018-09-23T17:28:35.236Z,101281.95
2018-09-23T17:31:04.049Z,101302.61
2018-09-23T17:33:32.899Z,101300.15
2018-09-23T17:36:01.702Z,101302.27
2018-09-23T17:38:30.608Z,101312.86
2018-09-23T17:40:59.490Z,101322.05
2018-09-23T17:43:28.276Z,101330.78
2018-09-23T17:45:57.128Z,101325.25
2018-09-23T17:48:25.953Z,101327.02
2018-09-23T17:50:54.762Z,101328.51
2018-09-23T17:53:23.607Z,101337.88
2018-09-23T17:55:52.448Z,101350.71
2018-09-23T17:58:21.313Z,101352.81
2018-09-23T18:00:50.147Z,101367.17
2018-09-23T18:03:18.981Z,101373.58
2018-09-23T18:05:47.805Z,101382.70
2018-09-23T18:08:16.700Z,101384.69
2018-09-23T18:10:45.535Z,101392.70
2018-09-23T18:13:14.387Z,101398.12
2018-09-23T18:15:43.196Z,101409.23
2018-09-23T18:18:12.117Z,101416.38
2018-09-23T18:20:40.963Z,101427.44
2018-09-23T18:23:09.806Z,101445.45
2018-09-23T18:25:38.659Z,101456.17
2018-09-23T18:28:07.521Z,101455.44
2018-09-23T18:30:36.344Z,101459.63
2018-09-23T18:33:05.167Z,101472.00
2018-09-23T18:35:33.991Z,101481.99
2018-09-23T18:38:02.827Z,101488.07
2018-09-23T18:40:31.664Z,101495.34
2018-09-23T18:43:00.696Z,101499.44
2018-09-23T18:45:29.551Z,101503.67
2018-09-23T18:47:58.575Z,101513.16
2018-09-23T18:50:27.661Z,101528.01
2018-09-23T18:53:14.070Z,101542.98
2018-09-23T18:55:44.407Z,101548.05
2018-09-23T18:58:13.228Z,101551.28
2018-09-23T19:00:42.102Z,101535.49
2018-09-23T19:03:10.997Z,101541.05
2018-09-23T19:05:39.772Z,101549.19
2018-09-23T19:08:08.877Z,101553.62
2018-09-23T19:10:37.723Z,101564.97
2018-09-23T19:13:24.209Z,101564.60
2018-09-23T19:16:11.007Z,101567.84
2018-09-23T19:18:39.827Z,101574.74
2018-09-23T19:21:08.663Z,101585.31
2018-09-23T19:23:37.519Z,101583.60
2018-09-23T19:26:06.524Z,101595.09
2018-09-23T19:28:35.386Z,101600.63
2018-09-23T19:31:04.192Z,101612.25
2018-09-23T19:33:33.064Z,101613.48
2018-09-23T19:36:01.867Z,101619.91
2018-09-23T19:38:30.691Z,101637.77
2018-09-23T19:40:59.531Z,101644.94
2018-09-23T19:43:28.623Z,101639.98
2018-09-23T19:45:57.478Z,101647.40
2018-09-23T19:48:26.323Z,101656.16
2018-09-23T19:50:55.161Z,101655.03
2018-09-23T19:53:24.009Z,101658.73
2018-09-23T19:55:52.807Z,101663.90
2018-09-23T19:58:21.748Z,101667.33
2018-09-23T20:00:50.571Z,101678.06
2018-09-23T20:03:19.384Z,101695.16
2018-09-23T20:05:48.228Z,101696.67
2018-09-23T20:08:17.089Z,101709.09
2018-09-23T20:10:45.908Z,101724.16
2018-09-23T20:13:14.727Z,101737.48
2018-09-23T20:15:43.676Z,101746.30
2018-09-23T20:18:12.391Z,101745.16
2018-09-23T20:20:41.216Z,101736.20
2018-09-23T20:23:10.048Z,101735.56
2018-09-23T20:25:38.878Z,101745.30
2018-09-23T20:28:07.730Z,101748.89
2018-09-23T20:30:36.554Z,101758.52
2018-09-23T20:33:05.416Z,101764.78
2018-09-23T20:35:34.247Z,101770.55
2018-09-23T20:38:03.058Z,101778.77
2018-09-23T20:40:31.884Z,101783.55
2018-09-23T20:43:00.695Z,101795.36
2018-09-23T20:45:29.556Z,101805.39
2018-09-23T20:47:58.376Z,101813.63
2018-09-23T20:50:27.206Z,101817.41
2018-09-23T20:52:56.149Z,101826.73
2018-09-23T20:55:24.972Z,101837.95
2018-09-23T20:57:53.842Z,101842.50
2018-09-23T21:00:22.648Z,101842.77
2018-09-23T21:02:51.474Z,101850.36
2018-09-23T21:05:20.340Z,101859.22
2018-09-23T21:07:49.168Z,101866.48
2018-09-23T21:10:18.014Z,101882.73
2018-09-23T21:12:46.802Z,101878.07
2018-09-23T21:15:15.679Z,101883.55
2018-09-23T21:17:44.461Z,101880.22
2018-09-23T21:20:13.276Z,101884.79
2018-09-23T21:22:42.175Z,101889.61
2018-09-23T21:25:10.931Z,101905.97
2018-09-23T21:27:39.764Z,101910.34
2018-09-23T21:30:08.603Z,101917.98
2018-09-23T21:32:37.447Z,101926.97
2018-09-23T21:35:06.275Z,101945.23
2018-09-23T21:37:35.116Z,101941.59
2018-09-23T21:40:03.955Z,101944.12
2018-09-23T21:42:32.792Z,101941.11
2018-09-23T21:45:01.646Z,101938.13
2018-09-23T21:47:30.557Z,101944.20
2018-09-23T21:49:59.376Z,101943.40
2018-09-23T21:52:28.211Z,101947.49
2018-09-23T21:54:57.043Z,101955.44
2018-09-23T21:57:25.896Z,101961.68
2018-09-23T21:59:54.762Z,101967.41
2018-09-23T22:02:23.611Z,101964.06
2018-09-23T22:04:52.450Z,101970.94
2018-09-23T22:07:21.276Z,101975.68
2018-09-23T22:09:50.113Z,101982.65
2018-09-23T22:12:18.971Z,101989.17
2018-09-23T22:14:47.822Z,101999.13
2018-09-23T22:17:16.646Z,102005.70
2018-09-23T22:19:45.503Z,101999.52
2018-09-23T22:22:14.331Z,102011.27
2018-09-23T22:24:43.176Z,102021.31
2018-09-23T22:27:12.024Z,102021.22
2018-09-23T22:29:40.839Z,102027.11
2018-09-23T22:32:09.697Z,102028.98
2018-09-23T22:34:38.543Z,102042.23
2018-09-23T22:37:07.396Z,102046.00
2018-09-23T22:39:36.216Z,102050.77
2018-09-23T22:42:05.059Z,102054.05
2018-09-23T22:44:33.906Z,102056.08
2018-09-23T22:47:02.751Z,102061.88
2018-09-23T22:49:31.562Z,102067.77
2018-09-23T22:52:00.396Z,102064.77
2018-09-23T22:54:29.236Z,102067.00
2018-09-23T22:56:58.109Z,102072.22
2018-09-23T22:59:26.927Z,102083.91
2018-09-23T23:01:55.812Z,102072.59
2018-09-23T23:04:24.593Z,102083.30
2018-09-23T23:06:53.431Z,102086.48
2018-09-23T23:09:22.262Z,102078.08
2018-09-23T23:11:51.076Z,102086.33
2018-09-23T23:14:19.906Z,102096.66
2018-09-23T23:16:48.751Z,102095.11
2018-09-23T23:19:17.576Z,102102.84
2018-09-23T23:21:46.423Z,102114.46
2018-09-23T23:24:15.263Z,102121.97
2018-09-23T23:26:44.093Z,102127.59
2018-09-23T23:29:12.924Z,102122.28
2018-09-23T23:31:41.783Z,102128.08
2018-09-23T23:34:10.637Z,102122.88
2018-09-23T23:36:39.457Z,102131.76
2018-09-23T23:39:09.391Z,102126.92
2018-09-23T23:41:38.297Z,102132.26
2018-09-23T23:44:07.487Z,102132.27
2018-09-23T23:46:36.720Z,102137.95
2018-09-23T23:49:05.857Z,102145.11
2018-09-23T23:51:34.654Z,102150.41
2018-09-23T23:54:03.492Z,102153.41
2018-09-23T23:56:32.326Z,102159.87
2018-09-23T23:59:01.163Z,102164.88
